sensor_id;sensor_type;location;lat;lon;timestamp;temperature;humidity
38604;DHT22;24924;50.054;8.790;2024-02-15T00:00:26;11.20;99.90
38604;DHT22;24924;50.054;8.790;2024-02-15T00:03:13;11.20;99.90
38604;DHT22;24924;50.054;8.790;2024-02-15T00:05:59;11.20;99.90
38604;DHT22;24924;50.054;8.790;2024-02-15T00:08:45;11.20;99.90
38604;DHT22;24924;50.054;8.790;2024-02-15T00:11:32;11.20;99.90
38604;DHT22;24924;50.054;8.790;2024-02-15T00:14:19;11.20;99.90
38604;DHT22;24924;50.054;8.790;2024-02-15T00:17:05;11.30;99.90
38604;DHT22;24924;50.054;8.790;2024-02-15T00:19:52;11.20;99.90
38604;DHT22;24924;50.054;8.790;2024-02-15T00:22:38;11.20;99.90
38604;DHT22;24924;50.054;8.790;2024-02-15T00:25:27;11.20;99.90
38604;DHT22;24924;50.054;8.790;2024-02-15T00:28:13;11.10;99.90
38604;DHT22;24924;50.054;8.790;2024-02-15T00:30:59;11.10;99.90
38604;DHT22;24924;50.054;8.790;2024-02-15T00:33:45;11.10;99.90
38604;DHT22;24924;50.054;8.790;2024-02-15T00:36:32;11.10;99.90
38604;DHT22;24924;50.054;8.790;2024-02-15T00:39:22;11.10;99.90
38604;DHT22;24924;50.054;8.790;2024-02-15T00:42:08;11.10;99.90
38604;DHT22;24924;50.054;8.790;2024-02-15T00:44:55;11.10;99.90
38604;DHT22;24924;50.054;8.790;2024-02-15T00:47:41;11.20;99.90
38604;DHT22;24924;50.054;8.790;2024-02-15T00:50:28;11.30;99.90
38604;DHT22;24924;50.054;8.790;2024-02-15T00:53:14;11.30;99.90
38604;DHT22;24924;50.054;8.790;2024-02-15T00:56:00;11.30;99.90
38604;DHT22;24924;50.054;8.790;2024-02-15T00:58:47;11.30;99.90
38604;DHT22;24924;50.054;8.790;2024-02-15T01:01:33;11.30;99.90
38604;DHT22;24924;50.054;8.790;2024-02-15T01:04:19;11.30;99.90
38604;DHT22;24924;50.054;8.790;2024-02-15T01:07:05;11.40;99.90
38604;DHT22;24924;50.054;8.790;2024-02-15T01:09:52;11.30;99.90
38604;DHT22;24924;50.054;8.790;2024-02-15T01:12:38;11.30;99.90
38604;DHT22;24924;50.054;8.790;2024-02-15T01:15:24;11.30;99.90
38604;DHT22;24924;50.054;8.790;2024-02-15T01:18:10;11.30;99.90
38604;DHT22;24924;50.054;8.790;2024-02-15T01:20:57;11.30;99.90
38604;DHT22;24924;50.054;8.790;2024-02-15T01:23:44;11.40;99.90
38604;DHT22;24924;50.054;8.790;2024-02-15T01:26:30;11.40;99.90
38604;DHT22;24924;50.054;8.790;2024-02-15T01:29:17;11.30;99.90
38604;DHT22;24924;50.054;8.790;2024-02-15T01:32:03;11.30;99.90
38604;DHT22;24924;50.054;8.790;2024-02-15T01:34:49;11.10;99.90
38604;DHT22;24924;50.054;8.790;2024-02-15T01:37:39;11.30;99.90
38604;DHT22;24924;50.054;8.790;2024-02-15T01:40:26;11.30;99.90
38604;DHT22;24924;50.054;8.790;2024-02-15T01:43:13;11.40;99.90
38604;DHT22;24924;50.054;8.790;2024-02-15T01:46:00;11.40;99.90
38604;DHT22;24924;50.054;8.790;2024-02-15T01:48:49;11.40;99.90
38604;DHT22;24924;50.054;8.790;2024-02-15T01:51:36;11.40;99.90
38604;DHT22;24924;50.054;8.790;2024-02-15T01:54:23;11.40;99.90
38604;DHT22;24924;50.054;8.790;2024-02-15T01:57:09;11.40;99.90
38604;DHT22;24924;50.054;8.790;2024-02-15T01:59:55;11.40;99.90
38604;DHT22;24924;50.054;8.790;2024-02-15T02:02:44;11.50;99.90
38604;DHT22;24924;50.054;8.790;2024-02-15T02:05:31;11.50;99.90
38604;DHT22;24924;50.054;8.790;2024-02-15T02:08:17;11.50;99.90
38604;DHT22;24924;50.054;8.790;2024-02-15T02:11:03;11.40;99.90
38604;DHT22;24924;50.054;8.790;2024-02-15T02:13:50;11.40;99.90
38604;DHT22;24924;50.054;8.790;2024-02-15T02:16:37;11.30;99.90
38604;DHT22;24924;50.054;8.790;2024-02-15T02:19:25;11.40;99.90
38604;DHT22;24924;50.054;8.790;2024-02-15T02:22:11;11.30;99.90
38604;DHT22;24924;50.054;8.790;2024-02-15T02:25:07;11.30;99.90
38604;DHT22;24924;50.054;8.790;2024-02-15T02:27:57;11.30;99.90
38604;DHT22;24924;50.054;8.790;2024-02-15T02:30:43;11.40;99.90
38604;DHT22;24924;50.054;8.790;2024-02-15T02:33:31;11.40;99.90
38604;DHT22;24924;50.054;8.790;2024-02-15T02:36:20;11.30;99.90
38604;DHT22;24924;50.054;8.790;2024-02-15T02:39:07;11.30;99.90
38604;DHT22;24924;50.054;8.790;2024-02-15T02:41:53;11.30;99.90
38604;DHT22;24924;50.054;8.790;2024-02-15T02:44:39;11.30;99.90
38604;DHT22;24924;50.054;8.790;2024-02-15T02:47:25;11.40;99.90
38604;DHT22;24924;50.054;8.790;2024-02-15T02:50:13;11.50;99.90
38604;DHT22;24924;50.054;8.790;2024-02-15T02:52:59;11.40;99.90
38604;DHT22;24924;50.054;8.790;2024-02-15T02:55:45;11.40;99.90
38604;DHT22;24924;50.054;8.790;2024-02-15T02:58:32;11.40;99.90
38604;DHT22;24924;50.054;8.790;2024-02-15T03:01:18;11.60;99.90
38604;DHT22;24924;50.054;8.790;2024-02-15T03:04:04;11.60;99.90
38604;DHT22;24924;50.054;8.790;2024-02-15T03:06:50;11.60;99.90
38604;DHT22;24924;50.054;8.790;2024-02-15T03:09:37;11.60;99.90
38604;DHT22;24924;50.054;8.790;2024-02-15T03:12:23;11.60;99.90
38604;DHT22;24924;50.054;8.790;2024-02-15T03:15:10;11.60;99.90
38604;DHT22;24924;50.054;8.790;2024-02-15T03:17:59;11.60;99.90
38604;DHT22;24924;50.054;8.790;2024-02-15T03:20:46;11.60;99.90
38604;DHT22;24924;50.054;8.790;2024-02-15T03:23:32;11.60;99.90
38604;DHT22;24924;50.054;8.790;2024-02-15T03:26:29;11.60;99.90
38604;DHT22;24924;50.054;8.790;2024-02-15T03:29:17;11.60;99.90
38604;DHT22;24924;50.054;8.790;2024-02-15T03:32:03;11.70;99.90
38604;DHT22;24924;50.054;8.790;2024-02-15T03:34:51;11.70;99.90
38604;DHT22;24924;50.054;8.790;2024-02-15T03:37:37;11.70;99.90
38604;DHT22;24924;50.054;8.790;2024-02-15T03:40:25;11.60;99.90
38604;DHT22;24924;50.054;8.790;2024-02-15T03:43:12;11.70;99.90
38604;DHT22;24924;50.054;8.790;2024-02-15T03:45:59;11.70;99.90
38604;DHT22;24924;50.054;8.790;2024-02-15T03:48:45;11.70;99.90
38604;DHT22;24924;50.054;8.790;2024-02-15T03:51:31;11.70;99.90
38604;DHT22;24924;50.054;8.790;2024-02-15T03:54:18;11.60;99.90
38604;DHT22;24924;50.054;8.790;2024-02-15T03:57:04;11.60;99.90
38604;DHT22;24924;50.054;8.790;2024-02-15T03:59:52;11.60;99.90
38604;DHT22;24924;50.054;8.790;2024-02-15T04:02:40;11.70;99.90
38604;DHT22;24924;50.054;8.790;2024-02-15T04:05:27;11.80;99.90
38604;DHT22;24924;50.054;8.790;2024-02-15T04:08:13;11.70;99.90
38604;DHT22;24924;50.054;8.790;2024-02-15T04:11:02;11.60;99.90
38604;DHT22;24924;50.054;8.790;2024-02-15T04:13:49;11.60;99.90
38604;DHT22;24924;50.054;8.790;2024-02-15T04:16:35;11.70;99.90
38604;DHT22;24924;50.054;8.790;2024-02-15T04:19:21;11.80;99.90
38604;DHT22;24924;50.054;8.790;2024-02-15T04:22:08;11.80;99.90
38604;DHT22;24924;50.054;8.790;2024-02-15T04:24:54;11.70;99.90
38604;DHT22;24924;50.054;8.790;2024-02-15T04:27:41;11.60;99.90
38604;DHT22;24924;50.054;8.790;2024-02-15T04:30:27;11.60;99.90
38604;DHT22;24924;50.054;8.790;2024-02-15T04:33:13;11.60;99.90
38604;DHT22;24924;50.054;8.790;2024-02-15T04:36:01;11.60;99.90
38604;DHT22;24924;50.054;8.790;2024-02-15T04:38:52;11.70;99.90
38604;DHT22;24924;50.054;8.790;2024-02-15T04:41:38;11.70;99.90
38604;DHT22;24924;50.054;8.790;2024-02-15T04:44:25;11.70;99.90
38604;DHT22;24924;50.054;8.790;2024-02-15T04:47:14;11.70;99.90
38604;DHT22;24924;50.054;8.790;2024-02-15T04:50:00;11.80;99.90
38604;DHT22;24924;50.054;8.790;2024-02-15T04:52:48;11.80;99.90
38604;DHT22;24924;50.054;8.790;2024-02-15T04:55:35;11.70;99.90
38604;DHT22;24924;50.054;8.790;2024-02-15T04:58:21;11.60;99.90
38604;DHT22;24924;50.054;8.790;2024-02-15T05:01:08;11.60;99.90
38604;DHT22;24924;50.054;8.790;2024-02-15T05:03:54;11.50;99.90
38604;DHT22;24924;50.054;8.790;2024-02-15T05:06:41;11.40;99.90
38604;DHT22;24924;50.054;8.790;2024-02-15T05:09:27;11.30;99.90
38604;DHT22;24924;50.054;8.790;2024-02-15T05:12:21;11.20;99.90
38604;DHT22;24924;50.054;8.790;2024-02-15T05:15:09;11.10;99.90
38604;DHT22;24924;50.054;8.790;2024-02-15T05:17:58;11.20;99.90
38604;DHT22;24924;50.054;8.790;2024-02-15T05:20:47;11.20;99.90
38604;DHT22;24924;50.054;8.790;2024-02-15T05:23:33;11.20;99.90
38604;DHT22;24924;50.054;8.790;2024-02-15T05:26:20;11.10;99.90
38604;DHT22;24924;50.054;8.790;2024-02-15T05:29:12;11.10;99.90
38604;DHT22;24924;50.054;8.790;2024-02-15T05:31:59;11.00;99.90
38604;DHT22;24924;50.054;8.790;2024-02-15T05:34:46;11.00;99.90
38604;DHT22;24924;50.054;8.790;2024-02-15T05:37:32;11.00;99.90
38604;DHT22;24924;50.054;8.790;2024-02-15T05:40:20;11.00;99.90
38604;DHT22;24924;50.054;8.790;2024-02-15T05:43:06;11.00;99.90
38604;DHT22;24924;50.054;8.790;2024-02-15T05:45:53;10.80;99.90
38604;DHT22;24924;50.054;8.790;2024-02-15T05:48:39;10.80;99.90
38604;DHT22;24924;50.054;8.790;2024-02-15T05:51:25;10.80;99.90
38604;DHT22;24924;50.054;8.790;2024-02-15T05:54:11;10.80;99.90
38604;DHT22;24924;50.054;8.790;2024-02-15T05:56:57;10.90;99.90
38604;DHT22;24924;50.054;8.790;2024-02-15T05:59:46;10.90;99.90
38604;DHT22;24924;50.054;8.790;2024-02-15T06:02:34;10.70;99.90
38604;DHT22;24924;50.054;8.790;2024-02-15T06:05:20;10.70;99.90
38604;DHT22;24924;50.054;8.790;2024-02-15T06:08:07;10.70;99.90
38604;DHT22;24924;50.054;8.790;2024-02-15T06:10:53;10.70;99.90
38604;DHT22;24924;50.054;8.790;2024-02-15T06:13:39;10.60;99.90
38604;DHT22;24924;50.054;8.790;2024-02-15T06:16:25;10.60;99.90
38604;DHT22;24924;50.054;8.790;2024-02-15T06:19:12;10.50;99.90
38604;DHT22;24924;50.054;8.790;2024-02-15T06:21:58;10.50;99.90
38604;DHT22;24924;50.054;8.790;2024-02-15T06:24:44;10.50;99.90
38604;DHT22;24924;50.054;8.790;2024-02-15T06:27:30;10.50;99.90
38604;DHT22;24924;50.054;8.790;2024-02-15T06:30:17;10.50;99.90
38604;DHT22;24924;50.054;8.790;2024-02-15T06:33:21;10.50;99.90
38604;DHT22;24924;50.054;8.790;2024-02-15T06:36:26;10.60;99.90
38604;DHT22;24924;50.054;8.790;2024-02-15T06:39:31;10.60;99.90
38604;DHT22;24924;50.054;8.790;2024-02-15T06:42:27;10.60;99.90
38604;DHT22;24924;50.054;8.790;2024-02-15T06:45:16;10.60;99.90
38604;DHT22;24924;50.054;8.790;2024-02-15T06:48:02;10.60;99.90
38604;DHT22;24924;50.054;8.790;2024-02-15T06:50:49;10.50;99.90
38604;DHT22;24924;50.054;8.790;2024-02-15T06:53:35;10.50;99.90
38604;DHT22;24924;50.054;8.790;2024-02-15T06:56:22;10.50;99.90
38604;DHT22;24924;50.054;8.790;2024-02-15T06:59:09;10.50;99.90
38604;DHT22;24924;50.054;8.790;2024-02-15T07:01:56;10.60;99.90
38604;DHT22;24924;50.054;8.790;2024-02-15T07:04:44;10.60;99.90
38604;DHT22;24924;50.054;8.790;2024-02-15T07:07:30;10.60;99.90
38604;DHT22;24924;50.054;8.790;2024-02-15T07:10:17;10.70;99.90
38604;DHT22;24924;50.054;8.790;2024-02-15T07:13:03;10.70;99.90
38604;DHT22;24924;50.054;8.790;2024-02-15T07:15:49;10.70;99.90
38604;DHT22;24924;50.054;8.790;2024-02-15T07:18:35;10.70;99.90
38604;DHT22;24924;50.054;8.790;2024-02-15T07:21:21;10.70;99.90
38604;DHT22;24924;50.054;8.790;2024-02-15T07:24:12;10.80;99.90
38604;DHT22;24924;50.054;8.790;2024-02-15T07:26:59;10.80;99.90
38604;DHT22;24924;50.054;8.790;2024-02-15T07:29:45;10.80;99.90
38604;DHT22;24924;50.054;8.790;2024-02-15T07:32:31;10.90;99.90
38604;DHT22;24924;50.054;8.790;2024-02-15T07:35:20;10.90;99.90
38604;DHT22;24924;50.054;8.790;2024-02-15T07:38:10;10.80;99.90
38604;DHT22;24924;50.054;8.790;2024-02-15T07:40:57;10.90;99.90
38604;DHT22;24924;50.054;8.790;2024-02-15T07:43:43;11.00;99.90
38604;DHT22;24924;50.054;8.790;2024-02-15T07:46:30;11.00;99.90
38604;DHT22;24924;50.054;8.790;2024-02-15T07:49:16;11.20;99.90
38604;DHT22;24924;50.054;8.790;2024-02-15T07:52:03;11.20;99.90
38604;DHT22;24924;50.054;8.790;2024-02-15T07:54:50;11.30;99.90
38604;DHT22;24924;50.054;8.790;2024-02-15T07:57:38;11.30;99.90
38604;DHT22;24924;50.054;8.790;2024-02-15T08:00:24;11.40;99.90
38604;DHT22;24924;50.054;8.790;2024-02-15T08:03:12;11.40;99.90
38604;DHT22;24924;50.054;8.790;2024-02-15T08:06:00;11.60;99.90
38604;DHT22;24924;50.054;8.790;2024-02-15T08:08:47;11.60;99.90
38604;DHT22;24924;50.054;8.790;2024-02-15T08:11:33;11.70;99.90
38604;DHT22;24924;50.054;8.790;2024-02-15T08:14:19;11.70;99.90
38604;DHT22;24924;50.054;8.790;2024-02-15T08:17:07;11.70;99.90
38604;DHT22;24924;50.054;8.790;2024-02-15T08:19:54;11.80;99.90
38604;DHT22;24924;50.054;8.790;2024-02-15T08:22:41;12.00;99.90
38604;DHT22;24924;50.054;8.790;2024-02-15T08:25:26;12.00;99.90
38604;DHT22;24924;50.054;8.790;2024-02-15T08:28:12;12.10;99.90
38604;DHT22;24924;50.054;8.790;2024-02-15T08:30:58;12.20;99.90
38604;DHT22;24924;50.054;8.790;2024-02-15T08:33:45;12.10;99.90
38604;DHT22;24924;50.054;8.790;2024-02-15T08:36:31;12.10;99.90
38604;DHT22;24924;50.054;8.790;2024-02-15T08:39:18;12.20;99.90
38604;DHT22;24924;50.054;8.790;2024-02-15T08:42:04;12.30;99.90
38604;DHT22;24924;50.054;8.790;2024-02-15T08:44:51;12.20;99.90
38604;DHT22;24924;50.054;8.790;2024-02-15T08:47:38;12.20;99.90
38604;DHT22;24924;50.054;8.790;2024-02-15T08:50:25;12.20;99.90
38604;DHT22;24924;50.054;8.790;2024-02-15T08:53:11;12.40;99.90
38604;DHT22;24924;50.054;8.790;2024-02-15T08:55:57;12.40;99.90
38604;DHT22;24924;50.054;8.790;2024-02-15T08:58:43;12.40;99.90
38604;DHT22;24924;50.054;8.790;2024-02-15T09:01:30;12.50;99.90
38604;DHT22;24924;50.054;8.790;2024-02-15T09:04:17;12.50;99.90
38604;DHT22;24924;50.054;8.790;2024-02-15T09:07:03;12.70;99.90
38604;DHT22;24924;50.054;8.790;2024-02-15T09:09:50;12.60;99.90
38604;DHT22;24924;50.054;8.790;2024-02-15T09:12:37;12.90;99.90
38604;DHT22;24924;50.054;8.790;2024-02-15T09:15:26;13.00;99.90
38604;DHT22;24924;50.054;8.790;2024-02-15T09:18:14;13.30;99.90
38604;DHT22;24924;50.054;8.790;2024-02-15T09:21:00;13.30;99.90
38604;DHT22;24924;50.054;8.790;2024-02-15T09:23:46;13.40;99.90
38604;DHT22;24924;50.054;8.790;2024-02-15T09:26:34;13.50;99.90
38604;DHT22;24924;50.054;8.790;2024-02-15T09:29:20;13.50;99.90
38604;DHT22;24924;50.054;8.790;2024-02-15T09:32:07;13.80;99.90
38604;DHT22;24924;50.054;8.790;2024-02-15T09:34:53;14.00;99.90
38604;DHT22;24924;50.054;8.790;2024-02-15T09:37:44;14.00;99.90
38604;DHT22;24924;50.054;8.790;2024-02-15T09:40:30;14.20;99.90
38604;DHT22;24924;50.054;8.790;2024-02-15T09:43:16;14.40;99.90
38604;DHT22;24924;50.054;8.790;2024-02-15T09:46:03;14.70;99.90
38604;DHT22;24924;50.054;8.790;2024-02-15T09:48:51;14.70;99.90
38604;DHT22;24924;50.054;8.790;2024-02-15T09:51:44;14.80;99.90
38604;DHT22;24924;50.054;8.790;2024-02-15T09:54:32;15.00;99.90
38604;DHT22;24924;50.054;8.790;2024-02-15T09:57:20;15.20;99.90
38604;DHT22;24924;50.054;8.790;2024-02-15T10:00:07;15.30;99.90
38604;DHT22;24924;50.054;8.790;2024-02-15T10:02:53;15.20;99.90
38604;DHT22;24924;50.054;8.790;2024-02-15T10:05:41;14.80;99.90
38604;DHT22;24924;50.054;8.790;2024-02-15T10:08:29;14.90;99.90
38604;DHT22;24924;50.054;8.790;2024-02-15T10:11:15;14.90;99.90
38604;DHT22;24924;50.054;8.790;2024-02-15T10:14:10;14.90;99.90
38604;DHT22;24924;50.054;8.790;2024-02-15T10:16:57;14.90;99.90
38604;DHT22;24924;50.054;8.790;2024-02-15T10:20:04;15.10;99.90
38604;DHT22;24924;50.054;8.790;2024-02-15T10:22:51;15.30;99.90
38604;DHT22;24924;50.054;8.790;2024-02-15T10:25:39;15.50;99.90
38604;DHT22;24924;50.054;8.790;2024-02-15T10:28:25;15.70;99.90
38604;DHT22;24924;50.054;8.790;2024-02-15T10:31:13;15.80;99.90
38604;DHT22;24924;50.054;8.790;2024-02-15T10:34:03;15.90;99.90
38604;DHT22;24924;50.054;8.790;2024-02-15T10:36:50;15.60;99.90
38604;DHT22;24924;50.054;8.790;2024-02-15T10:39:37;15.90;99.90
38604;DHT22;24924;50.054;8.790;2024-02-15T10:42:23;16.50;99.90
38604;DHT22;24924;50.054;8.790;2024-02-15T10:45:10;17.10;99.90
38604;DHT22;24924;50.054;8.790;2024-02-15T10:47:57;17.40;99.90
38604;DHT22;24924;50.054;8.790;2024-02-15T10:50:45;17.50;99.90
38604;DHT22;24924;50.054;8.790;2024-02-15T10:53:35;17.10;99.90
38604;DHT22;24924;50.054;8.790;2024-02-15T10:56:26;16.70;99.90
38604;DHT22;24924;50.054;8.790;2024-02-15T10:59:17;16.20;99.90
38604;DHT22;24924;50.054;8.790;2024-02-15T11:05:06;15.80;99.90
38604;DHT22;24924;50.054;8.790;2024-02-15T11:07:55;15.70;99.90
38604;DHT22;24924;50.054;8.790;2024-02-15T11:10:42;15.60;99.90
38604;DHT22;24924;50.054;8.790;2024-02-15T11:13:29;15.70;99.90
38604;DHT22;24924;50.054;8.790;2024-02-15T11:16:43;15.60;99.90
38604;DHT22;24924;50.054;8.790;2024-02-15T11:22:21;15.90;99.90
38604;DHT22;24924;50.054;8.790;2024-02-15T11:25:09;16.20;99.90
38604;DHT22;24924;50.054;8.790;2024-02-15T11:27:57;16.70;99.90
38604;DHT22;24924;50.054;8.790;2024-02-15T11:30:43;17.60;99.90
38604;DHT22;24924;50.054;8.790;2024-02-15T11:33:33;18.30;99.90
38604;DHT22;24924;50.054;8.790;2024-02-15T11:36:31;18.30;99.90
38604;DHT22;24924;50.054;8.790;2024-02-15T11:39:40;18.70;99.90
38604;DHT22;24924;50.054;8.790;2024-02-15T11:42:28;19.10;99.90
38604;DHT22;24924;50.054;8.790;2024-02-15T11:45:15;19.20;99.90
38604;DHT22;24924;50.054;8.790;2024-02-15T11:48:08;19.40;99.90
38604;DHT22;24924;50.054;8.790;2024-02-15T11:50:56;19.50;99.90
38604;DHT22;24924;50.054;8.790;2024-02-15T11:53:43;19.40;99.90
38604;DHT22;24924;50.054;8.790;2024-02-15T11:56:29;19.40;99.90
38604;DHT22;24924;50.054;8.790;2024-02-15T11:59:15;19.00;99.90
38604;DHT22;24924;50.054;8.790;2024-02-15T12:02:18;19.20;99.90
38604;DHT22;24924;50.054;8.790;2024-02-15T12:05:23;19.20;99.90
38604;DHT22;24924;50.054;8.790;2024-02-15T12:08:28;18.90;99.90
38604;DHT22;24924;50.054;8.790;2024-02-15T12:11:34;18.80;99.90
38604;DHT22;24924;50.054;8.790;2024-02-15T12:14:39;18.30;99.90
38604;DHT22;24924;50.054;8.790;2024-02-15T12:17:43;18.40;99.90
38604;DHT22;24924;50.054;8.790;2024-02-15T12:20:48;18.50;99.90
38604;DHT22;24924;50.054;8.790;2024-02-15T12:23:38;18.70;99.90
38604;DHT22;24924;50.054;8.790;2024-02-15T12:26:24;18.60;99.90
38604;DHT22;24924;50.054;8.790;2024-02-15T12:29:10;18.60;99.90
38604;DHT22;24924;50.054;8.790;2024-02-15T12:32:01;18.70;99.90
38604;DHT22;24924;50.054;8.790;2024-02-15T12:34:47;18.40;99.90
38604;DHT22;24924;50.054;8.790;2024-02-15T12:37:33;18.20;99.90
38604;DHT22;24924;50.054;8.790;2024-02-15T12:40:20;18.10;99.90
38604;DHT22;24924;50.054;8.790;2024-02-15T12:43:08;18.10;99.90
38604;DHT22;24924;50.054;8.790;2024-02-15T12:45:56;18.20;99.90
38604;DHT22;24924;50.054;8.790;2024-02-15T12:48:45;18.10;99.90
38604;DHT22;24924;50.054;8.790;2024-02-15T12:51:31;18.10;99.90
38604;DHT22;24924;50.054;8.790;2024-02-15T12:54:19;17.90;99.90
38604;DHT22;24924;50.054;8.790;2024-02-15T12:57:07;18.00;99.90
38604;DHT22;24924;50.054;8.790;2024-02-15T12:59:56;18.20;99.90
38604;DHT22;24924;50.054;8.790;2024-02-15T13:02:42;18.30;99.90
38604;DHT22;24924;50.054;8.790;2024-02-15T13:05:30;18.10;99.90
38604;DHT22;24924;50.054;8.790;2024-02-15T13:08:17;18.10;99.90
38604;DHT22;24924;50.054;8.790;2024-02-15T13:11:03;18.10;99.90
38604;DHT22;24924;50.054;8.790;2024-02-15T13:13:50;18.10;99.90
38604;DHT22;24924;50.054;8.790;2024-02-15T13:16:37;18.50;99.90
38604;DHT22;24924;50.054;8.790;2024-02-15T13:19:23;18.60;99.90
38604;DHT22;24924;50.054;8.790;2024-02-15T13:22:09;18.50;99.90
38604;DHT22;24924;50.054;8.790;2024-02-15T13:24:55;18.20;99.90
38604;DHT22;24924;50.054;8.790;2024-02-15T13:27:41;17.90;99.90
38604;DHT22;24924;50.054;8.790;2024-02-15T13:30:28;18.00;99.90
38604;DHT22;24924;50.054;8.790;2024-02-15T13:33:15;17.90;99.90
38604;DHT22;24924;50.054;8.790;2024-02-15T13:36:02;18.10;99.90
38604;DHT22;24924;50.054;8.790;2024-02-15T13:38:48;17.90;99.90
38604;DHT22;24924;50.054;8.790;2024-02-15T13:41:37;17.90;99.90
38604;DHT22;24924;50.054;8.790;2024-02-15T13:44:23;17.80;99.90
38604;DHT22;24924;50.054;8.790;2024-02-15T13:47:09;17.70;99.90
38604;DHT22;24924;50.054;8.790;2024-02-15T13:49:57;17.60;99.90
38604;DHT22;24924;50.054;8.790;2024-02-15T13:52:44;17.60;99.90
38604;DHT22;24924;50.054;8.790;2024-02-15T13:55:31;17.60;99.90
38604;DHT22;24924;50.054;8.790;2024-02-15T13:58:17;17.30;99.90
38604;DHT22;24924;50.054;8.790;2024-02-15T14:01:04;17.40;99.90
38604;DHT22;24924;50.054;8.790;2024-02-15T14:03:50;17.40;99.90
38604;DHT22;24924;50.054;8.790;2024-02-15T14:06:36;17.40;99.90
38604;DHT22;24924;50.054;8.790;2024-02-15T14:09:23;17.20;99.90
38604;DHT22;24924;50.054;8.790;2024-02-15T14:12:11;17.10;99.90
38604;DHT22;24924;50.054;8.790;2024-02-15T14:14:58;17.10;99.90
38604;DHT22;24924;50.054;8.790;2024-02-15T14:17:45;17.10;99.90
38604;DHT22;24924;50.054;8.790;2024-02-15T14:20:32;17.20;99.90
38604;DHT22;24924;50.054;8.790;2024-02-15T14:23:18;17.20;99.90
38604;DHT22;24924;50.054;8.790;2024-02-15T14:26:04;17.10;99.90
38604;DHT22;24924;50.054;8.790;2024-02-15T14:28:53;17.10;99.90
38604;DHT22;24924;50.054;8.790;2024-02-15T14:31:38;16.90;99.90
38604;DHT22;24924;50.054;8.790;2024-02-15T14:34:43;16.80;99.90
38604;DHT22;24924;50.054;8.790;2024-02-15T14:37:29;16.90;99.90
38604;DHT22;24924;50.054;8.790;2024-02-15T14:40:15;17.00;99.90
38604;DHT22;24924;50.054;8.790;2024-02-15T14:43:03;16.90;99.90
38604;DHT22;24924;50.054;8.790;2024-02-15T14:45:52;16.80;99.90
38604;DHT22;24924;50.054;8.790;2024-02-15T14:48:39;16.80;99.90
38604;DHT22;24924;50.054;8.790;2024-02-15T14:51:26;16.60;99.90
38604;DHT22;24924;50.054;8.790;2024-02-15T14:54:12;16.40;99.90
38604;DHT22;24924;50.054;8.790;2024-02-15T14:57:00;16.40;99.90
38604;DHT22;24924;50.054;8.790;2024-02-15T14:59:46;16.50;99.90
38604;DHT22;24924;50.054;8.790;2024-02-15T15:02:33;16.40;99.90
38604;DHT22;24924;50.054;8.790;2024-02-15T15:05:19;16.30;99.90
38604;DHT22;24924;50.054;8.790;2024-02-15T15:08:24;16.50;99.90
38604;DHT22;24924;50.054;8.790;2024-02-15T15:11:29;16.30;99.90
38604;DHT22;24924;50.054;8.790;2024-02-15T15:14:34;16.30;99.90
38604;DHT22;24924;50.054;8.790;2024-02-15T15:17:19;16.20;99.90
38604;DHT22;24924;50.054;8.790;2024-02-15T15:20:07;16.20;99.90
38604;DHT22;24924;50.054;8.790;2024-02-15T15:22:55;16.20;99.90
38604;DHT22;24924;50.054;8.790;2024-02-15T15:25:42;16.20;99.90
38604;DHT22;24924;50.054;8.790;2024-02-15T15:28:28;16.20;99.90
38604;DHT22;24924;50.054;8.790;2024-02-15T15:31:14;16.10;99.90
38604;DHT22;24924;50.054;8.790;2024-02-15T15:34:01;16.10;99.90
38604;DHT22;24924;50.054;8.790;2024-02-15T15:36:48;16.00;99.90
38604;DHT22;24924;50.054;8.790;2024-02-15T15:39:34;16.00;99.90
38604;DHT22;24924;50.054;8.790;2024-02-15T15:42:22;16.00;99.90
38604;DHT22;24924;50.054;8.790;2024-02-15T15:45:09;15.90;99.90
38604;DHT22;24924;50.054;8.790;2024-02-15T15:47:55;15.70;99.90
38604;DHT22;24924;50.054;8.790;2024-02-15T15:50:41;15.50;99.90
38604;DHT22;24924;50.054;8.790;2024-02-15T15:53:28;15.30;99.90
38604;DHT22;24924;50.054;8.790;2024-02-15T15:56:15;15.40;99.90
38604;DHT22;24924;50.054;8.790;2024-02-15T15:59:02;15.40;99.90
38604;DHT22;24924;50.054;8.790;2024-02-15T16:01:51;15.40;99.90
38604;DHT22;24924;50.054;8.790;2024-02-15T16:04:47;15.20;99.90
38604;DHT22;24924;50.054;8.790;2024-02-15T16:07:34;14.90;99.90
38604;DHT22;24924;50.054;8.790;2024-02-15T16:10:21;14.80;99.90
38604;DHT22;24924;50.054;8.790;2024-02-15T16:13:12;14.60;99.90
38604;DHT22;24924;50.054;8.790;2024-02-15T16:15:58;14.40;99.90
38604;DHT22;24924;50.054;8.790;2024-02-15T16:18:44;14.30;99.90
38604;DHT22;24924;50.054;8.790;2024-02-15T16:21:30;14.20;99.90
38604;DHT22;24924;50.054;8.790;2024-02-15T16:24:16;14.20;99.90
38604;DHT22;24924;50.054;8.790;2024-02-15T16:27:03;14.00;99.90
38604;DHT22;24924;50.054;8.790;2024-02-15T16:29:52;14.00;99.90
38604;DHT22;24924;50.054;8.790;2024-02-15T16:32:38;14.00;99.90
38604;DHT22;24924;50.054;8.790;2024-02-15T16:35:24;13.90;99.90
38604;DHT22;24924;50.054;8.790;2024-02-15T16:38:10;14.00;99.90
38604;DHT22;24924;50.054;8.790;2024-02-15T16:40:56;13.90;99.90
38604;DHT22;24924;50.054;8.790;2024-02-15T16:43:42;13.80;99.90
38604;DHT22;24924;50.054;8.790;2024-02-15T16:46:32;13.70;99.90
38604;DHT22;24924;50.054;8.790;2024-02-15T16:49:19;13.70;99.90
38604;DHT22;24924;50.054;8.790;2024-02-15T16:52:05;13.50;99.90
38604;DHT22;24924;50.054;8.790;2024-02-15T16:54:51;13.50;99.90
38604;DHT22;24924;50.054;8.790;2024-02-15T16:57:38;13.50;99.90
38604;DHT22;24924;50.054;8.790;2024-02-15T17:00:24;13.40;99.90
38604;DHT22;24924;50.054;8.790;2024-02-15T17:03:10;13.30;99.90
38604;DHT22;24924;50.054;8.790;2024-02-15T17:05:59;13.30;99.90
38604;DHT22;24924;50.054;8.790;2024-02-15T17:08:47;13.20;99.90
38604;DHT22;24924;50.054;8.790;2024-02-15T17:11:40;13.20;99.90
38604;DHT22;24924;50.054;8.790;2024-02-15T17:14:26;13.10;99.90
38604;DHT22;24924;50.054;8.790;2024-02-15T17:17:13;13.20;99.90
38604;DHT22;24924;50.054;8.790;2024-02-15T17:19:59;13.10;99.90
38604;DHT22;24924;50.054;8.790;2024-02-15T17:22:46;13.00;99.90
38604;DHT22;24924;50.054;8.790;2024-02-15T17:25:32;13.00;99.90
38604;DHT22;24924;50.054;8.790;2024-02-15T17:28:19;13.00;99.90
38604;DHT22;24924;50.054;8.790;2024-02-15T17:31:05;12.90;99.90
38604;DHT22;24924;50.054;8.790;2024-02-15T17:33:53;12.90;99.90
38604;DHT22;24924;50.054;8.790;2024-02-15T17:36:40;12.90;99.90
38604;DHT22;24924;50.054;8.790;2024-02-15T17:39:26;12.80;99.90
38604;DHT22;24924;50.054;8.790;2024-02-15T17:42:13;12.80;99.90
38604;DHT22;24924;50.054;8.790;2024-02-15T17:44:59;12.90;99.90